GVAC

Amílcar Cabral International Airport

Espargos, Cape Verde
TAF GVAC 211700Z 2118/2224 02014KT 9999 FEW013 BECMG 2204/2206 BKN014
Issued Valid From Valid To
Jul-21 @ 17:00 UTC
(6 hours ago)
Jul-21 @ 18:00 UTC
(5 hours ago)
Jul-23 @ 00:00 UTC
(-1 days ago)
Jul-21 @ 18:00 to Jul-22 @ 04:00
TAF GVAC 211700Z 2118/2224 02014KT 9999 FEW013
Wind Visibility Clouds
20° at 14 knots 10,000+ meters
  • Few at 1,300' AGL
Becoming Jul-22 @ 04:00 to Jul-23 @ 00:00
BECMG 2204/2206 BKN014
Wind Visibility Clouds
20° at 14 knots 10,000+ meters
  • Broken at 1,400' AGL
TAF GVAC 211700Z 2118/2224 02014KT 9999 FEW013 BECMG 2204/2206 BKN014
Issued Jul-21 @ 17:00 UTC
(6 hours ago)
Valid From Jul-21 @ 18:00 UTC
(5 hours ago)
Valid To Jul-23 @ 00:00 UTC
(-1 days ago)
Jul-21 @ 18:00 - Jul-22 @ 04:00
Wind Visibility
20° at 14 knots 10,000+ meters
Clouds
  • Few at 1,300' AGL
Becoming Jul-22 @ 04:00 - Jul-23 @ 00:00
Wind Visibility
20° at 14 knots 10,000+ meters
Clouds
  • Broken at 1,400' AGL